Hovedside
METAR-TAF:

METAR-TAF

Lufthavner :

Vardø lufthavn. Svartnes

Vardø, Norge

breddegrad: 70-21N, lengdegrad: 031-03E, høyde over havet: 12 m

Gjeldene værobservasjon

Denne rapporten ble laget for 1 time og 57 minutter siden, klokken 12:50 UTC
Vind 13 kt fra Sørvest
Temperatur -6°C
Luftfuktighet 275%
Trykk 998 hPa
Sikt 10 km eller mer
Brutte skyer i en høyde av 4500 ft

METAR: ENSS 231250Z 23013KT 9999 BKN045 M06/08 Q0998 RMK WIND 500FT 24012KT

Tid: 15:47 (14:47 UTC)


TAF: fraværende

Værobservasjoner og værvarsel for over 4000 flyplasser (METAR- og TAF-rapporter).

Tilgjengelige stasjoner er representert av de røde og gule prikkene på kartet.

Hold musepekeren over prikken for å se navnet på stasjonen.

Klikk så for å se værobservasjoner og -varsler.

For å forandre kartet kan du klikke på den grønne knappen med svart kryss for å zoome inn, på den grønne knappen med strek for å zoome ut, eller på de grønne pilene for å se tilstøtende kart.


METAR-TAF: